createdAt,value
2018-11-20T00:01:36.588Z,101481.50
2018-11-20T00:06:20.952Z,101487.50
2018-11-20T00:09:54.213Z,101475.91
2018-11-20T00:12:31.006Z,101468.10
2018-11-20T00:15:04.870Z,101468.10
2018-11-20T00:18:09.261Z,101465.39
2018-11-20T00:20:43.326Z,101464.84
2018-11-20T00:23:26.516Z,101458.31
2018-11-20T00:26:00.609Z,101461.79
2018-11-20T00:29:37.600Z,101465.26
2018-11-20T00:32:15.648Z,101473.10
2018-11-20T00:34:51.604Z,101469.52
2018-11-20T00:37:58.077Z,101468.86
2018-11-20T00:40:33.134Z,101468.69
2018-11-20T00:43:43.627Z,101461.81
2018-11-20T00:47:20.585Z,101467.39
2018-11-20T00:49:57.401Z,101478.41
2018-11-20T00:52:31.386Z,101468.34
2018-11-20T00:55:05.338Z,101466.69
2018-11-20T00:57:45.535Z,101472.05
2018-11-20T01:00:23.363Z,101464.10
2018-11-20T01:03:56.083Z,101471.34
2018-11-20T01:06:57.395Z,101455.26
2018-11-20T01:09:48.431Z,101448.34
2018-11-20T01:12:53.820Z,101430.25
2018-11-20T01:15:26.923Z,101431.09
2018-11-20T01:18:19.203Z,101431.28
2018-11-20T01:21:01.257Z,101416.94
2018-11-20T01:23:36.216Z,101424.81
2018-11-20T01:26:14.314Z,101421.63
2018-11-20T01:29:50.188Z,101418.17
2018-11-20T01:32:24.188Z,101407.13
2018-11-20T01:35:56.084Z,101415.78
2018-11-20T01:39:28.927Z,101408.44
2018-11-20T01:42:03.068Z,101415.63
2018-11-20T01:44:41.054Z,101409.95
2018-11-20T01:47:15.856Z,101418.33
2018-11-20T01:50:20.443Z,101409.19
2018-11-20T01:55:00.811Z,101410.82
2018-11-20T01:57:34.832Z,101412.48
2018-11-20T02:00:09.181Z,101407.08
2018-11-20T02:02:59.542Z,101402.19
2018-11-20T02:05:34.758Z,101394.01
2018-11-20T02:09:17.170Z,101393.97
2018-11-20T02:13:53.654Z,101387.45
2018-11-20T02:16:27.662Z,101380.09
2018-11-20T02:19:01.909Z,101385.50
2018-11-20T02:22:35.914Z,101379.03
2018-11-20T02:25:10.232Z,101372.59
2018-11-20T02:27:47.197Z,101370.48
2018-11-20T02:30:24.167Z,101362.41
2018-11-20T02:33:57.933Z,101367.14
2018-11-20T02:37:31.990Z,101357.20
2018-11-20T02:40:06.076Z,101350.95
2018-11-20T02:42:40.141Z,101353.97
2018-11-20T02:45:34.677Z,101344.75
2018-11-20T02:48:17.245Z,101342.56
2018-11-20T02:50:51.540Z,101340.98
2018-11-20T02:55:30.135Z,101345.03
2018-11-20T02:59:06.969Z,101346.39
2018-11-20T03:03:43.692Z,101338.87
2018-11-20T03:06:18.881Z,101330.28
2018-11-20T03:08:53.165Z,101329.23
2018-11-20T03:11:27.238Z,101328.17
2018-11-20T03:14:32.578Z,101319.81
2018-11-20T03:17:12.495Z,101322.28
2018-11-20T03:19:46.548Z,101314.17
2018-11-20T03:24:28.470Z,101313.06
2018-11-20T03:28:03.318Z,101299.95
2018-11-20T03:31:00.491Z,101310.42
2018-11-20T03:33:34.674Z,101309.02
2018-11-20T03:36:09.746Z,101300.91
2018-11-20T03:39:01.856Z,101298.80
2018-11-20T03:41:42.808Z,101292.56
2018-11-20T03:44:47.436Z,101296.38
2018-11-20T03:48:24.506Z,101304.77
2018-11-20T03:51:14.784Z,101292.81
2018-11-20T03:53:53.849Z,101285.70
2018-11-20T03:56:31.834Z,101288.09
2018-11-20T04:00:04.656Z,101284.80
2018-11-20T04:04:42.078Z,101292.91
2018-11-20T04:07:17.481Z,101288.33
2018-11-20T04:10:05.729Z,101284.28
2018-11-20T04:13:45.684Z,101280.74
2018-11-20T04:17:27.602Z,101285.55
2018-11-20T04:20:01.761Z,101279.04
2018-11-20T04:22:34.872Z,101283.69
2018-11-20T04:26:07.932Z,101280.98
2018-11-20T04:30:48.604Z,101285.35
2018-11-20T04:33:41.472Z,101279.16
2018-11-20T04:37:15.224Z,101269.94
2018-11-20T04:39:52.025Z,101275.09
2018-11-20T04:42:28.202Z,101266.99
2018-11-20T04:45:04.178Z,101265.64
2018-11-20T04:47:53.373Z,101264.29
2018-11-20T04:50:27.390Z,101262.94
2018-11-20T04:53:00.589Z,101261.90
2018-11-20T04:55:33.660Z,101253.79
2018-11-20T04:58:18.799Z,101259.20
2018-11-20T05:01:55.043Z,101255.42
2018-11-20T05:04:29.103Z,101247.63
2018-11-20T05:07:02.172Z,101247.63
2018-11-20T05:10:07.469Z,101250.02
2018-11-20T05:12:48.828Z,101246.27
2018-11-20T05:16:25.656Z,101237.85
2018-11-20T05:19:01.829Z,101235.91
2018-11-20T05:21:35.855Z,101233.17
2018-11-20T05:26:15.047Z,101227.42
2018-11-20T05:28:54.721Z,101238.64
2018-11-20T05:31:28.970Z,101224.81
2018-11-20T05:34:33.549Z,101217.50
2018-11-20T05:37:07.580Z,101208.84
2018-11-20T05:39:49.445Z,101213.45
2018-11-20T05:42:22.568Z,101209.05
2018-11-20T05:47:03.036Z,101205.28
2018-11-20T05:51:39.837Z,101192.77
2018-11-20T05:54:28.024Z,101194.88
2018-11-20T05:57:08.072Z,101188.06
2018-11-20T05:59:42.053Z,101189.41
2018-11-20T06:02:27.206Z,101184.84
2018-11-20T06:05:12.397Z,101189.20
2018-11-20T06:08:48.566Z,101183.25
2018-11-20T06:11:22.714Z,101177.33
2018-11-20T06:14:10.671Z,101187.64
2018-11-20T06:16:59.721Z,101184.73
2018-11-20T06:20:10.212Z,101178.02
2018-11-20T06:22:44.997Z,101165.92
2018-11-20T06:27:27.613Z,101163.50
2018-11-20T06:30:01.752Z,101166.73
2018-11-20T06:32:34.878Z,101172.72
2018-11-20T06:35:11.851Z,101164.92
2018-11-20T06:37:48.775Z,101163.05
2018-11-20T06:40:22.944Z,101151.17
2018-11-20T06:42:56.995Z,101148.23
2018-11-20T06:45:31.244Z,101146.88
2018-11-20T06:49:08.155Z,101148.81
2018-11-20T06:51:51.989Z,101140.47
2018-11-20T06:54:31.944Z,101140.47
2018-11-20T06:57:06.168Z,101142.13
2018-11-20T07:00:39.949Z,101149.41
2018-11-20T07:03:13.972Z,101151.58
2018-11-20T07:06:07.309Z,101144.03
2018-11-20T07:09:47.033Z,101137.06
2018-11-20T07:12:26.091Z,101135.47
2018-11-20T07:15:00.218Z,101125.70
2018-11-20T07:17:41.125Z,101127.88
2018-11-20T07:20:15.580Z,101124.34
2018-11-20T07:22:50.683Z,101121.64
2018-11-20T07:25:25.717Z,101121.13
2018-11-20T07:28:02.611Z,101124.14
2018-11-20T07:31:34.490Z,101123.58
2018-11-20T07:35:07.384Z,101125.48
2018-11-20T07:37:41.246Z,101123.55
2018-11-20T07:40:15.300Z,101126.84
2018-11-20T07:42:48.364Z,101123.58
2018-11-20T07:45:22.438Z,101126.04
2018-11-20T07:48:00.312Z,101140.14
2018-11-20T07:54:50.398Z,101130.99
2018-11-20T07:58:23.473Z,101130.16
2018-11-20T08:01:01.495Z,101124.48
2018-11-20T08:05:40.746Z,101132.58
2018-11-20T08:08:15.783Z,101132.86
2018-11-20T08:10:49.771Z,101127.98
2018-11-20T08:14:26.828Z,101130.16
2018-11-20T08:17:00.857Z,101127.45
2018-11-20T08:21:38.731Z,101129.09
2018-11-20T08:24:18.551Z,101118.52
2018-11-20T08:26:54.425Z,101119.34
2018-11-20T08:29:43.613Z,101112.88
2018-11-20T08:32:26.157Z,101109.40
2018-11-20T08:35:01.910Z,101116.73
2018-11-20T08:37:41.835Z,101122.21
2018-11-20T08:40:27.886Z,101118.44
2018-11-20T08:43:04.321Z,101111.73
2018-11-20T08:45:38.439Z,101117.17
2018-11-20T08:48:14.567Z,101118.53
2018-11-20T08:52:53.641Z,101119.66
2018-11-20T08:55:59.522Z,101110.73
2018-11-20T08:58:33.851Z,101106.42
2018-11-20T09:01:09.462Z,101097.80
2018-11-20T09:03:43.556Z,101099.66
2018-11-20T09:06:17.666Z,101098.06
2018-11-20T09:08:58.770Z,101085.96
2018-11-20T09:11:32.956Z,101094.66
2018-11-20T09:14:06.977Z,101089.00
2018-11-20T09:18:43.147Z,101086.58
2018-11-20T09:21:18.380Z,101083.63
2018-11-20T09:23:52.461Z,101083.16
2018-11-20T09:26:26.655Z,101090.78
2018-11-20T09:29:00.809Z,101079.38
2018-11-20T09:32:06.917Z,101072.92
2018-11-20T09:34:41.272Z,101082.66
2018-11-20T09:38:13.141Z,101073.51
2018-11-20T09:40:56.581Z,101077.26
2018-11-20T09:43:52.616Z,101068.65
2018-11-20T09:46:33.578Z,101073.28
2018-11-20T09:49:07.641Z,101069.48
2018-11-20T09:51:40.765Z,101062.25
2018-11-20T09:56:20.112Z,101064.16
2018-11-20T09:59:55.603Z,101062.09
2018-11-20T10:06:20.798Z,101058.05
2018-11-20T10:09:28.058Z,101057.06
2018-11-20T10:12:02.693Z,101055.98
2018-11-20T10:16:39.532Z,101061.13
2018-11-20T10:19:21.593Z,101050.00
2018-11-20T10:21:55.732Z,101045.17
2018-11-20T10:24:29.986Z,101040.91
2018-11-20T10:27:04.149Z,101035.00
2018-11-20T10:29:38.422Z,101037.98
2018-11-20T10:34:18.899Z,101027.47
2018-11-20T10:37:00.905Z,101032.63
2018-11-20T10:41:41.504Z,101018.58
2018-11-20T10:44:15.529Z,101019.73
2018-11-20T10:47:47.961Z,101015.69
2018-11-20T10:50:22.037Z,101014.39
2018-11-20T10:52:58.990Z,101004.14
2018-11-20T10:55:35.977Z,101003.64
2018-11-20T10:58:11.993Z,101006.16
2018-11-20T11:00:47.215Z,101002.16
2018-11-20T11:03:21.270Z,100993.53
2018-11-20T11:05:55.350Z,100982.50
2018-11-20T11:08:33.093Z,100993.85
2018-11-20T11:11:07.064Z,100988.99
2018-11-20T11:13:41.221Z,100980.05
2018-11-20T11:16:15.469Z,100974.12
2018-11-20T11:18:54.560Z,100977.92
2018-11-20T11:21:36.905Z,100971.73
2018-11-20T11:26:15.879Z,100966.89
2018-11-20T11:31:05.248Z,100949.55
2018-11-20T11:34:09.892Z,100946.32
2018-11-20T11:36:45.474Z,100953.09
2018-11-20T11:39:19.387Z,100945.77
2018-11-20T11:42:12.547Z,100939.55
2018-11-20T11:44:51.480Z,100932.78
2018-11-20T11:47:25.702Z,100934.72
2018-11-20T11:50:01.668Z,100927.44
2018-11-20T11:52:42.639Z,100921.77
2018-11-20T11:55:23.677Z,100925.56
2018-11-20T11:57:57.736Z,100911.25
2018-11-20T12:00:39.925Z,100909.62
